sensor_id;sensor_type;location;lat;lon;timestamp;P1;durP1;ratioP1;P2;durP2;ratioP2
2001;SDS011;1003;48.002;7.788;2023-11-21T00:00:06;5.33;;;1.50;;
2001;SDS011;1003;48.002;7.788;2023-11-21T00:02:37;6.80;;;1.90;;
2001;SDS011;1003;48.002;7.788;2023-11-21T00:05:05;4.37;;;1.50;;
2001;SDS011;1003;48.002;7.788;2023-11-21T00:07:33;3.43;;;1.60;;
2001;SDS011;1003;48.002;7.788;2023-11-21T00:10:00;6.33;;;1.77;;
2001;SDS011;1003;48.002;7.788;2023-11-21T00:12:27;4.70;;;1.70;;
2001;SDS011;1003;48.002;7.788;2023-11-21T00:14:57;5.63;;;1.53;;
2001;SDS011;1003;48.002;7.788;2023-11-21T00:17:24;5.33;;;1.80;;
2001;SDS011;1003;48.002;7.788;2023-11-21T00:19:52;7.37;;;1.83;;
2001;SDS011;1003;48.002;7.788;2023-11-21T00:22:19;6.10;;;1.90;;
2001;SDS011;1003;48.002;7.788;2023-11-21T00:24:46;7.63;;;1.57;;
2001;SDS011;1003;48.002;7.788;2023-11-21T00:27:14;4.50;;;1.80;;
2001;SDS011;1003;48.002;7.788;2023-11-21T00:29:41;4.87;;;1.60;;
2001;SDS011;1003;48.002;7.788;2023-11-21T00:32:09;3.30;;;1.50;;
2001;SDS011;1003;48.002;7.788;2023-11-21T00:34:37;6.10;;;1.80;;
2001;SDS011;1003;48.002;7.788;2023-11-21T00:37:05;3.77;;;1.40;;
2001;SDS011;1003;48.002;7.788;2023-11-21T00:39:32;4.37;;;1.40;;
2001;SDS011;1003;48.002;7.788;2023-11-21T00:42:00;2.20;;;1.33;;
2001;SDS011;1003;48.002;7.788;2023-11-21T00:44:27;3.03;;;1.23;;
2001;SDS011;1003;48.002;7.788;2023-11-21T00:46:54;5.50;;;1.47;;
2001;SDS011;1003;48.002;7.788;2023-11-21T00:49:23;4.47;;;1.30;;
2001;SDS011;1003;48.002;7.788;2023-11-21T00:51:50;6.40;;;1.27;;
2001;SDS011;1003;48.002;7.788;2023-11-21T00:54:17;4.97;;;1.43;;
2001;SDS011;1003;48.002;7.788;2023-11-21T00:56:45;4.73;;;1.37;;
2001;SDS011;1003;48.002;7.788;2023-11-21T00:59:13;2.77;;;1.17;;
2001;SDS011;1003;48.002;7.788;2023-11-21T01:01:40;2.73;;;1.20;;
2001;SDS011;1003;48.002;7.788;2023-11-21T01:04:07;4.17;;;1.17;;
2001;SDS011;1003;48.002;7.788;2023-11-21T01:06:36;3.70;;;1.40;;
2001;SDS011;1003;48.002;7.788;2023-11-21T01:09:04;4.33;;;1.23;;
2001;SDS011;1003;48.002;7.788;2023-11-21T01:11:33;4.10;;;1.07;;
2001;SDS011;1003;48.002;7.788;2023-11-21T01:14:02;3.97;;;1.10;;
2001;SDS011;1003;48.002;7.788;2023-11-21T01:16:31;3.13;;;1.07;;
2001;SDS011;1003;48.002;7.788;2023-11-21T01:18:58;3.37;;;0.93;;
2001;SDS011;1003;48.002;7.788;2023-11-21T01:21:26;2.33;;;1.13;;
2001;SDS011;1003;48.002;7.788;2023-11-21T01:23:55;1.60;;;0.80;;
2001;SDS011;1003;48.002;7.788;2023-11-21T01:26:22;1.53;;;0.80;;
2001;SDS011;1003;48.002;7.788;2023-11-21T01:28:49;2.80;;;1.23;;
2001;SDS011;1003;48.002;7.788;2023-11-21T01:31:17;3.70;;;1.23;;
2001;SDS011;1003;48.002;7.788;2023-11-21T01:33:45;3.60;;;1.10;;
2001;SDS011;1003;48.002;7.788;2023-11-21T01:36:12;3.23;;;0.70;;
2001;SDS011;1003;48.002;7.788;2023-11-21T01:38:40;3.27;;;0.87;;
2001;SDS011;1003;48.002;7.788;2023-11-21T01:41:08;4.03;;;0.87;;
2001;SDS011;1003;48.002;7.788;2023-11-21T01:43:36;3.10;;;0.90;;
2001;SDS011;1003;48.002;7.788;2023-11-21T01:46:03;1.83;;;0.77;;
2001;SDS011;1003;48.002;7.788;2023-11-21T01:48:32;2.57;;;0.90;;
2001;SDS011;1003;48.002;7.788;2023-11-21T01:50:59;3.30;;;1.00;;
2001;SDS011;1003;48.002;7.788;2023-11-21T01:53:28;4.97;;;1.10;;
2001;SDS011;1003;48.002;7.788;2023-11-21T01:55:55;2.77;;;0.87;;
2001;SDS011;1003;48.002;7.788;2023-11-21T01:58:26;1.07;;;0.80;;
2001;SDS011;1003;48.002;7.788;2023-11-21T02:00:53;2.93;;;0.97;;
2001;SDS011;1003;48.002;7.788;2023-11-21T02:03:20;2.60;;;0.80;;
2001;SDS011;1003;48.002;7.788;2023-11-21T02:05:48;4.00;;;1.50;;
2001;SDS011;1003;48.002;7.788;2023-11-21T02:08:15;1.63;;;0.83;;
2001;SDS011;1003;48.002;7.788;2023-11-21T02:10:44;2.40;;;1.00;;
2001;SDS011;1003;48.002;7.788;2023-11-21T02:13:12;2.40;;;0.80;;
2001;SDS011;1003;48.002;7.788;2023-11-21T02:15:42;2.03;;;0.90;;
2001;SDS011;1003;48.002;7.788;2023-11-21T02:18:10;2.77;;;1.00;;
2001;SDS011;1003;48.002;7.788;2023-11-21T02:20:38;1.23;;;0.67;;
2001;SDS011;1003;48.002;7.788;2023-11-21T02:23:08;2.07;;;0.60;;
2001;SDS011;1003;48.002;7.788;2023-11-21T02:25:35;1.67;;;0.70;;
2001;SDS011;1003;48.002;7.788;2023-11-21T02:28:03;2.43;;;0.90;;
2001;SDS011;1003;48.002;7.788;2023-11-21T02:30:31;4.40;;;0.90;;
2001;SDS011;1003;48.002;7.788;2023-11-21T02:32:59;1.57;;;0.63;;
2001;SDS011;1003;48.002;7.788;2023-11-21T02:35:27;2.00;;;0.90;;
2001;SDS011;1003;48.002;7.788;2023-11-21T02:37:56;2.17;;;0.83;;
2001;SDS011;1003;48.002;7.788;2023-11-21T02:40:24;1.27;;;0.50;;
2001;SDS011;1003;48.002;7.788;2023-11-21T02:42:51;1.97;;;0.70;;
2001;SDS011;1003;48.002;7.788;2023-11-21T02:45:19;2.00;;;1.00;;
2001;SDS011;1003;48.002;7.788;2023-11-21T02:47:47;2.53;;;0.80;;
2001;SDS011;1003;48.002;7.788;2023-11-21T02:50:15;2.60;;;1.07;;
2001;SDS011;1003;48.002;7.788;2023-11-21T02:52:44;3.97;;;1.00;;
2001;SDS011;1003;48.002;7.788;2023-11-21T02:55:11;2.20;;;0.70;;
2001;SDS011;1003;48.002;7.788;2023-11-21T02:57:39;3.20;;;0.80;;
2001;SDS011;1003;48.002;7.788;2023-11-21T03:00:07;2.83;;;0.77;;
2001;SDS011;1003;48.002;7.788;2023-11-21T03:02:37;2.70;;;0.80;;
2001;SDS011;1003;48.002;7.788;2023-11-21T03:05:05;1.33;;;1.00;;
2001;SDS011;1003;48.002;7.788;2023-11-21T03:07:33;4.10;;;0.80;;
2001;SDS011;1003;48.002;7.788;2023-11-21T03:10:01;3.43;;;1.00;;
2001;SDS011;1003;48.002;7.788;2023-11-21T03:12:29;3.53;;;1.00;;
2001;SDS011;1003;48.002;7.788;2023-11-21T03:14:57;1.57;;;0.73;;
2001;SDS011;1003;48.002;7.788;2023-11-21T03:17:26;1.23;;;0.70;;
2001;SDS011;1003;48.002;7.788;2023-11-21T03:19:55;1.47;;;0.70;;
2001;SDS011;1003;48.002;7.788;2023-11-21T03:22:22;2.77;;;1.00;;
2001;SDS011;1003;48.002;7.788;2023-11-21T03:24:49;1.40;;;0.83;;
2001;SDS011;1003;48.002;7.788;2023-11-21T03:27:16;2.73;;;0.87;;
2001;SDS011;1003;48.002;7.788;2023-11-21T03:29:44;3.97;;;0.77;;
2001;SDS011;1003;48.002;7.788;2023-11-21T03:32:13;3.00;;;0.80;;
2001;SDS011;1003;48.002;7.788;2023-11-21T03:34:53;0.60;;;0.60;;
2001;SDS011;1003;48.002;7.788;2023-11-21T03:37:21;1.57;;;0.80;;
2001;SDS011;1003;48.002;7.788;2023-11-21T03:39:49;1.77;;;0.70;;
2001;SDS011;1003;48.002;7.788;2023-11-21T03:42:17;2.57;;;0.70;;
2001;SDS011;1003;48.002;7.788;2023-11-21T03:44:44;3.30;;;1.00;;
2001;SDS011;1003;48.002;7.788;2023-11-21T03:47:11;3.83;;;0.93;;
2001;SDS011;1003;48.002;7.788;2023-11-21T03:49:40;1.97;;;0.67;;
2001;SDS011;1003;48.002;7.788;2023-11-21T03:52:08;2.13;;;0.87;;
2001;SDS011;1003;48.002;7.788;2023-11-21T03:54:35;2.93;;;0.90;;
2001;SDS011;1003;48.002;7.788;2023-11-21T03:57:02;4.10;;;1.00;;
2001;SDS011;1003;48.002;7.788;2023-11-21T03:59:30;2.63;;;0.80;;
2001;SDS011;1003;48.002;7.788;2023-11-21T04:01:57;1.13;;;0.50;;
2001;SDS011;1003;48.002;7.788;2023-11-21T04:04:26;3.27;;;1.00;;
2001;SDS011;1003;48.002;7.788;2023-11-21T04:06:53;2.40;;;0.70;;
2001;SDS011;1003;48.002;7.788;2023-11-21T04:09:21;1.87;;;0.60;;
2001;SDS011;1003;48.002;7.788;2023-11-21T04:11:50;2.17;;;0.70;;
2001;SDS011;1003;48.002;7.788;2023-11-21T04:14:17;15.60;;;2.37;;
2001;SDS011;1003;48.002;7.788;2023-11-21T04:16:44;1.90;;;0.70;;
2001;SDS011;1003;48.002;7.788;2023-11-21T04:19:12;1.80;;;0.60;;
2001;SDS011;1003;48.002;7.788;2023-11-21T04:21:41;2.90;;;0.87;;
2001;SDS011;1003;48.002;7.788;2023-11-21T04:24:09;2.27;;;1.00;;
2001;SDS011;1003;48.002;7.788;2023-11-21T04:26:36;3.53;;;0.97;;
2001;SDS011;1003;48.002;7.788;2023-11-21T04:29:04;3.27;;;0.97;;
2001;SDS011;1003;48.002;7.788;2023-11-21T04:31:31;1.47;;;0.47;;
2001;SDS011;1003;48.002;7.788;2023-11-21T04:33:58;3.93;;;0.87;;
2001;SDS011;1003;48.002;7.788;2023-11-21T04:36:26;1.80;;;0.90;;
2001;SDS011;1003;48.002;7.788;2023-11-21T04:38:57;0.80;;;0.70;;
2001;SDS011;1003;48.002;7.788;2023-11-21T04:41:24;4.43;;;0.90;;
2001;SDS011;1003;48.002;7.788;2023-11-21T04:43:51;0.80;;;0.60;;
2001;SDS011;1003;48.002;7.788;2023-11-21T04:46:18;1.50;;;0.90;;
2001;SDS011;1003;48.002;7.788;2023-11-21T04:48:46;1.20;;;0.67;;
2001;SDS011;1003;48.002;7.788;2023-11-21T04:51:14;0.60;;;0.60;;
2001;SDS011;1003;48.002;7.788;2023-11-21T04:53:41;2.13;;;1.00;;
2001;SDS011;1003;48.002;7.788;2023-11-21T04:56:10;1.80;;;0.63;;
2001;SDS011;1003;48.002;7.788;2023-11-21T04:58:37;1.97;;;0.80;;
2001;SDS011;1003;48.002;7.788;2023-11-21T05:01:06;1.37;;;0.70;;
2001;SDS011;1003;48.002;7.788;2023-11-21T05:03:34;1.47;;;0.80;;
2001;SDS011;1003;48.002;7.788;2023-11-21T05:06:03;1.90;;;1.00;;
2001;SDS011;1003;48.002;7.788;2023-11-21T05:08:31;1.87;;;0.83;;
2001;SDS011;1003;48.002;7.788;2023-11-21T05:10:58;1.37;;;0.50;;
2001;SDS011;1003;48.002;7.788;2023-11-21T05:13:27;4.73;;;0.83;;
2001;SDS011;1003;48.002;7.788;2023-11-21T05:15:54;0.90;;;0.60;;
2001;SDS011;1003;48.002;7.788;2023-11-21T05:18:22;0.97;;;0.50;;
2001;SDS011;1003;48.002;7.788;2023-11-21T05:20:52;1.83;;;0.60;;
2001;SDS011;1003;48.002;7.788;2023-11-21T05:23:19;1.77;;;0.80;;
2001;SDS011;1003;48.002;7.788;2023-11-21T05:25:47;2.33;;;0.77;;
2001;SDS011;1003;48.002;7.788;2023-11-21T05:28:14;2.97;;;0.70;;
2001;SDS011;1003;48.002;7.788;2023-11-21T05:30:42;1.27;;;0.60;;
2001;SDS011;1003;48.002;7.788;2023-11-21T05:33:10;2.03;;;0.73;;
2001;SDS011;1003;48.002;7.788;2023-11-21T05:35:37;2.20;;;0.90;;
2001;SDS011;1003;48.002;7.788;2023-11-21T05:38:04;1.20;;;1.10;;
2001;SDS011;1003;48.002;7.788;2023-11-21T05:40:31;2.00;;;0.80;;
2001;SDS011;1003;48.002;7.788;2023-11-21T05:42:59;2.67;;;0.87;;
2001;SDS011;1003;48.002;7.788;2023-11-21T05:45:26;2.97;;;0.83;;
2001;SDS011;1003;48.002;7.788;2023-11-21T05:47:57;3.13;;;1.00;;
2001;SDS011;1003;48.002;7.788;2023-11-21T05:50:24;3.83;;;1.37;;
2001;SDS011;1003;48.002;7.788;2023-11-21T05:52:51;3.67;;;1.00;;
2001;SDS011;1003;48.002;7.788;2023-11-21T05:55:19;1.90;;;1.00;;
2001;SDS011;1003;48.002;7.788;2023-11-21T05:57:50;1.50;;;1.10;;
2001;SDS011;1003;48.002;7.788;2023-11-21T06:00:18;3.50;;;1.30;;
2001;SDS011;1003;48.002;7.788;2023-11-21T06:02:46;3.13;;;1.20;;
2001;SDS011;1003;48.002;7.788;2023-11-21T06:05:16;2.70;;;1.13;;
2001;SDS011;1003;48.002;7.788;2023-11-21T06:07:44;1.93;;;0.97;;
2001;SDS011;1003;48.002;7.788;2023-11-21T06:10:12;2.10;;;1.00;;
2001;SDS011;1003;48.002;7.788;2023-11-21T06:12:39;1.97;;;1.10;;
2001;SDS011;1003;48.002;7.788;2023-11-21T06:15:08;2.80;;;1.30;;
2001;SDS011;1003;48.002;7.788;2023-11-21T06:17:38;1.67;;;1.20;;
2001;SDS011;1003;48.002;7.788;2023-11-21T06:20:06;3.27;;;1.43;;
2001;SDS011;1003;48.002;7.788;2023-11-21T06:22:36;3.33;;;1.70;;
2001;SDS011;1003;48.002;7.788;2023-11-21T06:25:04;5.63;;;2.33;;
2001;SDS011;1003;48.002;7.788;2023-11-21T06:27:33;3.03;;;1.90;;
2001;SDS011;1003;48.002;7.788;2023-11-21T06:30:02;7.73;;;4.13;;
2001;SDS011;1003;48.002;7.788;2023-11-21T06:32:31;3.57;;;3.00;;
2001;SDS011;1003;48.002;7.788;2023-11-21T06:34:59;5.87;;;3.30;;
2001;SDS011;1003;48.002;7.788;2023-11-21T06:37:26;2.90;;;2.20;;
2001;SDS011;1003;48.002;7.788;2023-11-21T06:39:56;3.47;;;1.73;;
2001;SDS011;1003;48.002;7.788;2023-11-21T06:42:24;3.67;;;2.17;;
2001;SDS011;1003;48.002;7.788;2023-11-21T06:44:51;2.50;;;1.67;;
2001;SDS011;1003;48.002;7.788;2023-11-21T06:47:22;3.87;;;1.80;;
2001;SDS011;1003;48.002;7.788;2023-11-21T06:49:50;2.47;;;1.90;;
2001;SDS011;1003;48.002;7.788;2023-11-21T06:52:18;2.97;;;1.70;;
2001;SDS011;1003;48.002;7.788;2023-11-21T06:54:47;3.03;;;2.00;;
2001;SDS011;1003;48.002;7.788;2023-11-21T06:57:16;2.67;;;2.03;;
2001;SDS011;1003;48.002;7.788;2023-11-21T06:59:43;3.53;;;1.87;;
2001;SDS011;1003;48.002;7.788;2023-11-21T07:02:10;2.53;;;1.80;;
2001;SDS011;1003;48.002;7.788;2023-11-21T07:04:38;3.60;;;2.10;;
2001;SDS011;1003;48.002;7.788;2023-11-21T07:07:06;3.53;;;1.80;;
2001;SDS011;1003;48.002;7.788;2023-11-21T07:09:33;2.73;;;2.07;;
2001;SDS011;1003;48.002;7.788;2023-11-21T07:12:00;3.17;;;1.90;;
2001;SDS011;1003;48.002;7.788;2023-11-21T07:14:30;3.07;;;1.87;;
2001;SDS011;1003;48.002;7.788;2023-11-21T07:16:57;3.90;;;1.87;;
2001;SDS011;1003;48.002;7.788;2023-11-21T07:19:24;2.60;;;1.93;;
2001;SDS011;1003;48.002;7.788;2023-11-21T07:21:52;4.57;;;1.90;;
2001;SDS011;1003;48.002;7.788;2023-11-21T07:24:19;2.57;;;1.80;;
2001;SDS011;1003;48.002;7.788;2023-11-21T07:26:47;4.30;;;2.10;;
2001;SDS011;1003;48.002;7.788;2023-11-21T07:29:14;5.57;;;1.70;;
2001;SDS011;1003;48.002;7.788;2023-11-21T07:31:43;3.50;;;1.90;;
2001;SDS011;1003;48.002;7.788;2023-11-21T07:34:10;2.63;;;1.80;;
2001;SDS011;1003;48.002;7.788;2023-11-21T07:36:37;2.10;;;1.90;;
2001;SDS011;1003;48.002;7.788;2023-11-21T07:39:05;3.03;;;1.80;;
2001;SDS011;1003;48.002;7.788;2023-11-21T07:41:32;2.30;;;1.90;;
2001;SDS011;1003;48.002;7.788;2023-11-21T07:43:59;3.60;;;1.90;;
2001;SDS011;1003;48.002;7.788;2023-11-21T07:46:26;5.17;;;1.83;;
2001;SDS011;1003;48.002;7.788;2023-11-21T07:48:55;3.70;;;1.80;;
2001;SDS011;1003;48.002;7.788;2023-11-21T07:51:23;2.07;;;1.70;;
2001;SDS011;1003;48.002;7.788;2023-11-21T07:53:50;2.10;;;1.83;;
2001;SDS011;1003;48.002;7.788;2023-11-21T07:56:17;2.13;;;1.90;;
2001;SDS011;1003;48.002;7.788;2023-11-21T07:58:44;3.33;;;2.00;;
2001;SDS011;1003;48.002;7.788;2023-11-21T08:01:12;2.97;;;2.10;;
2001;SDS011;1003;48.002;7.788;2023-11-21T08:03:39;4.50;;;2.60;;
2001;SDS011;1003;48.002;7.788;2023-11-21T08:06:08;2.57;;;2.00;;
2001;SDS011;1003;48.002;7.788;2023-11-21T08:08:35;2.57;;;2.27;;
2001;SDS011;1003;48.002;7.788;2023-11-21T08:11:02;3.93;;;3.00;;
2001;SDS011;1003;48.002;7.788;2023-11-21T08:13:30;5.53;;;3.00;;
2001;SDS011;1003;48.002;7.788;2023-11-21T08:15:57;3.37;;;2.63;;
2001;SDS011;1003;48.002;7.788;2023-11-21T08:18:28;2.43;;;1.80;;
2001;SDS011;1003;48.002;7.788;2023-11-21T08:20:55;4.07;;;2.00;;
2001;SDS011;1003;48.002;7.788;2023-11-21T08:23:24;3.10;;;2.30;;
2001;SDS011;1003;48.002;7.788;2023-11-21T08:25:53;1.80;;;1.70;;
2001;SDS011;1003;48.002;7.788;2023-11-21T08:28:21;3.23;;;1.60;;
2001;SDS011;1003;48.002;7.788;2023-11-21T08:30:50;1.93;;;1.70;;
2001;SDS011;1003;48.002;7.788;2023-11-21T08:33:19;3.07;;;2.00;;
2001;SDS011;1003;48.002;7.788;2023-11-21T08:35:46;2.30;;;1.90;;
2001;SDS011;1003;48.002;7.788;2023-11-21T08:38:13;2.10;;;1.90;;
2001;SDS011;1003;48.002;7.788;2023-11-21T08:40:42;3.27;;;1.90;;
2001;SDS011;1003;48.002;7.788;2023-11-21T08:43:09;2.53;;;1.80;;
2001;SDS011;1003;48.002;7.788;2023-11-21T08:45:37;3.67;;;1.83;;
2001;SDS011;1003;48.002;7.788;2023-11-21T08:48:04;3.57;;;2.00;;
2001;SDS011;1003;48.002;7.788;2023-11-21T08:50:32;4.17;;;2.00;;
2001;SDS011;1003;48.002;7.788;2023-11-21T08:52:59;2.67;;;1.83;;
2001;SDS011;1003;48.002;7.788;2023-11-21T08:55:26;3.70;;;2.23;;
2001;SDS011;1003;48.002;7.788;2023-11-21T08:57:55;2.23;;;1.80;;
2001;SDS011;1003;48.002;7.788;2023-11-21T09:00:24;3.53;;;2.03;;
2001;SDS011;1003;48.002;7.788;2023-11-21T09:02:51;3.07;;;2.00;;
2001;SDS011;1003;48.002;7.788;2023-11-21T09:05:18;5.50;;;2.00;;
2001;SDS011;1003;48.002;7.788;2023-11-21T09:07:45;3.60;;;2.20;;
2001;SDS011;1003;48.002;7.788;2023-11-21T09:10:13;2.70;;;2.03;;
2001;SDS011;1003;48.002;7.788;2023-11-21T09:12:40;2.20;;;2.00;;
2001;SDS011;1003;48.002;7.788;2023-11-21T09:15:10;3.70;;;1.97;;
2001;SDS011;1003;48.002;7.788;2023-11-21T09:17:37;2.10;;;1.90;;
2001;SDS011;1003;48.002;7.788;2023-11-21T09:20:06;2.37;;;2.00;;
2001;SDS011;1003;48.002;7.788;2023-11-21T09:22:35;4.07;;;2.40;;
2001;SDS011;1003;48.002;7.788;2023-11-21T09:25:03;3.43;;;2.30;;
2001;SDS011;1003;48.002;7.788;2023-11-21T09:27:33;3.07;;;2.00;;
2001;SDS011;1003;48.002;7.788;2023-11-21T09:30:05;2.53;;;2.13;;
2001;SDS011;1003;48.002;7.788;2023-11-21T09:32:37;2.47;;;2.10;;
2001;SDS011;1003;48.002;7.788;2023-11-21T09:35:05;2.77;;;2.10;;
2001;SDS011;1003;48.002;7.788;2023-11-21T09:37:33;2.03;;;1.87;;
2001;SDS011;1003;48.002;7.788;2023-11-21T09:40:03;2.13;;;1.90;;
2001;SDS011;1003;48.002;7.788;2023-11-21T09:42:38;3.53;;;2.00;;
2001;SDS011;1003;48.002;7.788;2023-11-21T09:45:13;2.67;;;2.00;;
2001;SDS011;1003;48.002;7.788;2023-11-21T09:47:50;2.57;;;2.07;;
2001;SDS011;1003;48.002;7.788;2023-11-21T09:50:23;2.07;;;1.83;;
2001;SDS011;1003;48.002;7.788;2023-11-21T09:52:57;3.67;;;2.20;;
2001;SDS011;1003;48.002;7.788;2023-11-21T09:55:35;3.60;;;2.00;;
2001;SDS011;1003;48.002;7.788;2023-11-21T09:58:05;2.83;;;2.13;;
2001;SDS011;1003;48.002;7.788;2023-11-21T10:00:37;2.93;;;2.20;;
2001;SDS011;1003;48.002;7.788;2023-11-21T10:03:08;3.30;;;2.30;;
2001;SDS011;1003;48.002;7.788;2023-11-21T10:05:36;2.60;;;2.30;;
2001;SDS011;1003;48.002;7.788;2023-11-21T10:08:04;4.17;;;2.17;;
2001;SDS011;1003;48.002;7.788;2023-11-21T10:10:35;3.90;;;2.00;;
2001;SDS011;1003;48.002;7.788;2023-11-21T10:13:06;3.73;;;1.80;;
2001;SDS011;1003;48.002;7.788;2023-11-21T10:15:40;2.90;;;1.70;;
2001;SDS011;1003;48.002;7.788;2023-11-21T10:18:21;2.03;;;1.67;;
2001;SDS011;1003;48.002;7.788;2023-11-21T10:20:50;2.70;;;1.30;;
2001;SDS011;1003;48.002;7.788;2023-11-21T10:23:18;2.07;;;1.63;;
2001;SDS011;1003;48.002;7.788;2023-11-21T10:25:46;3.80;;;1.50;;
2001;SDS011;1003;48.002;7.788;2023-11-21T10:28:13;2.13;;;1.40;;
2001;SDS011;1003;48.002;7.788;2023-11-21T10:30:40;2.77;;;1.10;;
2001;SDS011;1003;48.002;7.788;2023-11-21T10:33:07;2.17;;;1.27;;
2001;SDS011;1003;48.002;7.788;2023-11-21T10:35:45;2.53;;;1.57;;
2001;SDS011;1003;48.002;7.788;2023-11-21T10:38:16;1.93;;;1.50;;
2001;SDS011;1003;48.002;7.788;2023-11-21T10:40:43;2.03;;;1.30;;
2001;SDS011;1003;48.002;7.788;2023-11-21T10:43:11;1.60;;;1.50;;
2001;SDS011;1003;48.002;7.788;2023-11-21T10:45:41;2.10;;;1.30;;
2001;SDS011;1003;48.002;7.788;2023-11-21T10:48:09;1.57;;;1.47;;
2001;SDS011;1003;48.002;7.788;2023-11-21T10:50:40;2.50;;;1.60;;
2001;SDS011;1003;48.002;7.788;2023-11-21T10:53:09;1.60;;;1.50;;
2001;SDS011;1003;48.002;7.788;2023-11-21T10:55:38;2.00;;;1.40;;
2001;SDS011;1003;48.002;7.788;2023-11-21T10:58:05;1.20;;;1.10;;
2001;SDS011;1003;48.002;7.788;2023-11-21T11:00:35;1.60;;;1.50;;
2001;SDS011;1003;48.002;7.788;2023-11-21T11:03:05;2.50;;;1.60;;
2001;SDS011;1003;48.002;7.788;2023-11-21T11:05:38;2.37;;;1.70;;
2001;SDS011;1003;48.002;7.788;2023-11-21T11:08:17;1.70;;;1.23;;
2001;SDS011;1003;48.002;7.788;2023-11-21T11:10:51;2.67;;;1.50;;
2001;SDS011;1003;48.002;7.788;2023-11-21T11:13:18;1.57;;;1.47;;
2001;SDS011;1003;48.002;7.788;2023-11-21T11:15:47;1.67;;;1.50;;
2001;SDS011;1003;48.002;7.788;2023-11-21T11:18:17;1.60;;;1.50;;
2001;SDS011;1003;48.002;7.788;2023-11-21T11:20:46;3.13;;;1.70;;
2001;SDS011;1003;48.002;7.788;2023-11-21T11:23:25;2.07;;;1.60;;
2001;SDS011;1003;48.002;7.788;2023-11-21T11:26:12;2.50;;;1.50;;
2001;SDS011;1003;48.002;7.788;2023-11-21T11:28:57;1.87;;;1.70;;
2001;SDS011;1003;48.002;7.788;2023-11-21T11:31:42;1.60;;;1.10;;
2001;SDS011;1003;48.002;7.788;2023-11-21T11:34:26;3.13;;;1.40;;
2001;SDS011;1003;48.002;7.788;2023-11-21T11:37:00;1.30;;;1.20;;
2001;SDS011;1003;48.002;7.788;2023-11-21T11:39:34;1.40;;;1.30;;
2001;SDS011;1003;48.002;7.788;2023-11-21T11:42:04;2.13;;;1.30;;
2001;SDS011;1003;48.002;7.788;2023-11-21T11:44:50;1.13;;;1.10;;
2001;SDS011;1003;48.002;7.788;2023-11-21T11:47:20;1.40;;;1.30;;
2001;SDS011;1003;48.002;7.788;2023-11-21T11:50:00;3.70;;;1.60;;
2001;SDS011;1003;48.002;7.788;2023-11-21T11:52:33;1.83;;;1.40;;
2001;SDS011;1003;48.002;7.788;2023-11-21T11:55:07;2.60;;;1.83;;
2001;SDS011;1003;48.002;7.788;2023-11-21T11:57:37;1.33;;;1.23;;
2001;SDS011;1003;48.002;7.788;2023-11-21T12:00:11;2.20;;;1.40;;
2001;SDS011;1003;48.002;7.788;2023-11-21T12:02:50;1.83;;;1.17;;
2001;SDS011;1003;48.002;7.788;2023-11-21T12:05:19;1.50;;;1.10;;
2001;SDS011;1003;48.002;7.788;2023-11-21T12:08:02;2.63;;;1.27;;
2001;SDS011;1003;48.002;7.788;2023-11-21T12:10:32;1.50;;;1.40;;
2001;SDS011;1003;48.002;7.788;2023-11-21T12:13:01;2.13;;;1.30;;
2001;SDS011;1003;48.002;7.788;2023-11-21T12:15:32;2.17;;;1.20;;
2001;SDS011;1003;48.002;7.788;2023-11-21T12:18:00;1.70;;;1.20;;
2001;SDS011;1003;48.002;7.788;2023-11-21T12:20:27;1.33;;;1.20;;
2001;SDS011;1003;48.002;7.788;2023-11-21T12:22:56;1.73;;;1.60;;
2001;SDS011;1003;48.002;7.788;2023-11-21T12:25:25;1.90;;;1.50;;
2001;SDS011;1003;48.002;7.788;2023-11-21T12:27:56;1.93;;;1.60;;
2001;SDS011;1003;48.002;7.788;2023-11-21T12:30:24;2.37;;;1.50;;
2001;SDS011;1003;48.002;7.788;2023-11-21T12:32:54;2.77;;;1.53;;
2001;SDS011;1003;48.002;7.788;2023-11-21T12:35:22;1.60;;;1.47;;
2001;SDS011;1003;48.002;7.788;2023-11-21T12:37:52;1.57;;;1.27;;
2001;SDS011;1003;48.002;7.788;2023-11-21T12:40:22;1.53;;;1.43;;
2001;SDS011;1003;48.002;7.788;2023-11-21T12:42:51;3.03;;;1.47;;
2001;SDS011;1003;48.002;7.788;2023-11-21T12:45:21;2.00;;;1.80;;
2001;SDS011;1003;48.002;7.788;2023-11-21T12:47:51;1.83;;;1.50;;
2001;SDS011;1003;48.002;7.788;2023-11-21T12:50:22;1.70;;;1.60;;
2001;SDS011;1003;48.002;7.788;2023-11-21T12:52:54;3.13;;;1.90;;
2001;SDS011;1003;48.002;7.788;2023-11-21T12:55:25;2.43;;;1.90;;
2001;SDS011;1003;48.002;7.788;2023-11-21T12:57:57;2.93;;;1.90;;
2001;SDS011;1003;48.002;7.788;2023-11-21T13:00:35;2.67;;;1.80;;
2001;SDS011;1003;48.002;7.788;2023-11-21T13:03:05;1.77;;;1.67;;
2001;SDS011;1003;48.002;7.788;2023-11-21T13:05:35;2.33;;;1.80;;
2001;SDS011;1003;48.002;7.788;2023-11-21T13:08:05;1.90;;;1.70;;
2001;SDS011;1003;48.002;7.788;2023-11-21T13:10:35;2.83;;;1.70;;
2001;SDS011;1003;48.002;7.788;2023-11-21T13:13:04;1.90;;;1.80;;
2001;SDS011;1003;48.002;7.788;2023-11-21T13:15:36;2.80;;;1.77;;
2001;SDS011;1003;48.002;7.788;2023-11-21T13:18:06;2.00;;;1.73;;
2001;SDS011;1003;48.002;7.788;2023-11-21T13:20:36;2.00;;;1.80;;
2001;SDS011;1003;48.002;7.788;2023-11-21T13:23:07;2.17;;;1.83;;
2001;SDS011;1003;48.002;7.788;2023-11-21T13:25:37;2.47;;;2.07;;
2001;SDS011;1003;48.002;7.788;2023-11-21T13:28:06;2.43;;;1.97;;
2001;SDS011;1003;48.002;7.788;2023-11-21T13:30:36;2.77;;;1.80;;
2001;SDS011;1003;48.002;7.788;2023-11-21T13:33:05;1.87;;;1.67;;
2001;SDS011;1003;48.002;7.788;2023-11-21T13:35:35;2.50;;;1.63;;
2001;SDS011;1003;48.002;7.788;2023-11-21T13:38:07;1.53;;;1.43;;
2001;SDS011;1003;48.002;7.788;2023-11-21T13:40:36;1.70;;;1.60;;
2001;SDS011;1003;48.002;7.788;2023-11-21T13:43:09;2.30;;;1.70;;
2001;SDS011;1003;48.002;7.788;2023-11-21T13:45:40;1.93;;;1.60;;
2001;SDS011;1003;48.002;7.788;2023-11-21T13:48:08;2.57;;;1.60;;
2001;SDS011;1003;48.002;7.788;2023-11-21T13:50:38;1.80;;;1.70;;
2001;SDS011;1003;48.002;7.788;2023-11-21T13:53:13;2.53;;;1.90;;
2001;SDS011;1003;48.002;7.788;2023-11-21T13:55:47;2.23;;;1.87;;
2001;SDS011;1003;48.002;7.788;2023-11-21T13:58:14;2.00;;;1.80;;
2001;SDS011;1003;48.002;7.788;2023-11-21T14:00:48;1.80;;;1.60;;
2001;SDS011;1003;48.002;7.788;2023-11-21T14:03:21;2.53;;;1.90;;
2001;SDS011;1003;48.002;7.788;2023-11-21T14:05:57;3.30;;;2.00;;
2001;SDS011;1003;48.002;7.788;2023-11-21T14:08:26;2.20;;;2.00;;
2001;SDS011;1003;48.002;7.788;2023-11-21T14:10:53;2.70;;;2.20;;
2001;SDS011;1003;48.002;7.788;2023-11-21T14:13:22;3.37;;;2.23;;
2001;SDS011;1003;48.002;7.788;2023-11-21T14:15:51;3.93;;;2.30;;
2001;SDS011;1003;48.002;7.788;2023-11-21T14:18:22;2.43;;;2.13;;
2001;SDS011;1003;48.002;7.788;2023-11-21T14:20:55;2.10;;;1.90;;
2001;SDS011;1003;48.002;7.788;2023-11-21T14:23:22;2.50;;;2.10;;
2001;SDS011;1003;48.002;7.788;2023-11-21T14:25:50;2.03;;;1.83;;
2001;SDS011;1003;48.002;7.788;2023-11-21T14:28:17;2.10;;;1.67;;
2001;SDS011;1003;48.002;7.788;2023-11-21T14:30:46;2.20;;;1.83;;
2001;SDS011;1003;48.002;7.788;2023-11-21T14:33:14;2.07;;;1.60;;
2001;SDS011;1003;48.002;7.788;2023-11-21T14:35:42;2.17;;;1.80;;
2001;SDS011;1003;48.002;7.788;2023-11-21T14:38:09;2.00;;;1.80;;
2001;SDS011;1003;48.002;7.788;2023-11-21T14:40:39;3.13;;;2.00;;
2001;SDS011;1003;48.002;7.788;2023-11-21T14:43:06;2.30;;;2.10;;
2001;SDS011;1003;48.002;7.788;2023-11-21T14:45:33;3.50;;;2.47;;
2001;SDS011;1003;48.002;7.788;2023-11-21T14:48:02;3.53;;;2.20;;
2001;SDS011;1003;48.002;7.788;2023-11-21T14:50:34;3.80;;;2.40;;
2001;SDS011;1003;48.002;7.788;2023-11-21T14:53:35;2.87;;;2.33;;
2001;SDS011;1003;48.002;7.788;2023-11-21T14:56:18;3.60;;;2.30;;
2001;SDS011;1003;48.002;7.788;2023-11-21T14:58:52;4.00;;;2.77;;
2001;SDS011;1003;48.002;7.788;2023-11-21T15:01:19;3.43;;;2.30;;
2001;SDS011;1003;48.002;7.788;2023-11-21T15:03:58;4.43;;;2.57;;
2001;SDS011;1003;48.002;7.788;2023-11-21T15:06:26;3.90;;;2.70;;
2001;SDS011;1003;48.002;7.788;2023-11-21T15:08:55;4.10;;;2.77;;
2001;SDS011;1003;48.002;7.788;2023-11-21T15:11:37;4.97;;;2.67;;
2001;SDS011;1003;48.002;7.788;2023-11-21T15:14:04;3.50;;;2.40;;
2001;SDS011;1003;48.002;7.788;2023-11-21T15:16:33;4.17;;;2.60;;
2001;SDS011;1003;48.002;7.788;2023-11-21T15:19:03;5.03;;;3.10;;
2001;SDS011;1003;48.002;7.788;2023-11-21T15:21:33;3.73;;;2.80;;
2001;SDS011;1003;48.002;7.788;2023-11-21T15:24:00;3.97;;;2.70;;
2001;SDS011;1003;48.002;7.788;2023-11-21T15:26:27;3.60;;;2.70;;